Time;durP1;ratioP1;P1;durP2;ratioP2;P2;SDS_P1;SDS_P2;PMS_P1;PMS_P2;Temp;Humidity;BMP_temperature;BMP_pressure;BME280_temperature;BME280_humidity;BME280_pressure;Samples;Min_cycle;Max_cycle;Signal;HPM_P1;HPM_P2
2023/07/20 00:02:11;;;;;;;;;;;18.50;80.40;;;;;;5024524;28;19913;-79
2023/07/20 00:04:37;;;;;;;;;;;18.50;80.70;;;;;;5020869;28;20538;-79
2023/07/20 00:07:03;;;;;;;;;;;18.50;81.30;;;;;;5024507;28;19924;-77
2023/07/20 00:09:29;;;;;;;;;;;18.50;81.20;;;;;;5020597;28;19913;-77
2023/07/20 00:11:54;;;;;;;;;;;18.40;81.70;;;;;;5023425;28;19921;-79
2023/07/20 00:14:20;;;;;;;;;;;18.50;81.90;;;;;;5022446;28;20396;-78
2023/07/20 00:16:55;;;;;;;;;;;18.50;81.80;;;;;;5020938;28;19966;-78
2023/07/20 00:19:27;;;;;;;;;;;18.50;81.80;;;;;;5016165;28;19914;-79
2023/07/20 00:21:56;;;;;;;;;;;18.50;81.90;;;;;;5024502;28;19920;-77
2023/07/20 00:24:21;;;;;;;;;;;18.40;82.20;;;;;;5024414;28;19968;-77
2023/07/20 00:26:47;;;;;;;;;;;18.40;82.40;;;;;;5024392;28;20398;-79
2023/07/20 00:29:12;;;;;;;;;;;18.50;82.30;;;;;;5018405;28;19988;-78
2023/07/20 00:31:38;;;;;;;;;;;18.40;82.50;;;;;;5025665;28;20040;-79
2023/07/20 00:34:04;;;;;;;;;;;18.50;82.40;;;;;;5016567;28;19959;-77
2023/07/20 00:36:30;;;;;;;;;;;18.40;82.50;;;;;;5026083;28;20308;-80
2023/07/20 00:38:55;;;;;;;;;;;18.40;82.70;;;;;;5024102;28;20591;-77
2023/07/20 00:41:21;;;;;;;;;;;18.30;82.90;;;;;;5023451;28;19913;-77
2023/07/20 00:43:47;;;;;;;;;;;18.30;82.70;;;;;;5025157;28;19917;-79
2023/07/20 00:46:13;;;;;;;;;;;18.20;82.80;;;;;;5021927;28;19924;-78
2023/07/20 00:48:39;;;;;;;;;;;18.30;82.70;;;;;;5014948;28;19925;-77
2023/07/20 00:51:05;;;;;;;;;;;18.20;83.10;;;;;;5019658;28;19933;-80
2023/07/20 00:53:31;;;;;;;;;;;18.10;83.70;;;;;;5019319;28;19925;-77
2023/07/20 00:55:56;;;;;;;;;;;18.00;84.00;;;;;;5025021;28;19920;-77
2023/07/20 00:58:22;;;;;;;;;;;18.00;84.00;;;;;;5023660;28;19921;-79
2023/07/20 01:00:48;;;;;;;;;;;18.00;83.90;;;;;;5025637;28;19917;-77
2023/07/20 01:03:13;;;;;;;;;;;18.10;83.60;;;;;;5019225;28;20740;-78
2023/07/20 01:05:48;;;;;;;;;;;18.10;83.50;;;;;;5021706;28;19924;-76
2023/07/20 01:08:28;;;;;;;;;;;18.10;83.40;;;;;;5025049;28;20452;-78
2023/07/20 01:10:57;;;;;;;;;;;18.10;83.50;;;;;;5019878;28;19924;-78
2023/07/20 01:13:23;;;;;;;;;;;18.00;83.70;;;;;;5017969;28;19913;-78
2023/07/20 01:15:49;;;;;;;;;;;18.00;84.20;;;;;;5016463;28;19924;-79
2023/07/20 01:18:14;;;;;;;;;;;17.90;84.40;;;;;;5013910;28;20490;-79
2023/07/20 01:20:40;;;;;;;;;;;17.90;84.30;;;;;;5021711;28;19913;-78
2023/07/20 01:23:05;;;;;;;;;;;17.90;84.20;;;;;;5011904;28;19913;-77
2023/07/20 01:25:34;;;;;;;;;;;17.80;84.50;;;;;;5015929;28;20091;-77
2023/07/20 01:28:35;;;;;;;;;;;17.90;84.30;;;;;;5024552;28;20475;-79
2023/07/20 01:31:17;;;;;;;;;;;17.80;84.60;;;;;;4982165;28;19988;-78
2023/07/20 01:33:44;;;;;;;;;;;17.80;84.70;;;;;;5018774;28;19917;-79
2023/07/20 01:36:10;;;;;;;;;;;17.80;84.90;;;;;;5024212;28;19913;-80
2023/07/20 01:38:36;;;;;;;;;;;17.70;85.10;;;;;;5020826;28;19924;-77
2023/07/20 01:41:02;;;;;;;;;;;17.70;85.20;;;;;;5022573;28;19913;-78
2023/07/20 01:43:27;;;;;;;;;;;17.70;85.40;;;;;;5019760;28;19917;-78
2023/07/20 01:45:53;;;;;;;;;;;17.60;85.50;;;;;;5023503;28;19932;-78
2023/07/20 01:48:18;;;;;;;;;;;17.60;86.00;;;;;;5021468;28;19917;-77
2023/07/20 01:50:44;;;;;;;;;;;17.50;86.30;;;;;;5019003;28;19925;-78
2023/07/20 01:53:10;;;;;;;;;;;17.40;86.90;;;;;;5020964;28;19917;-79
2023/07/20 01:55:35;;;;;;;;;;;17.30;87.40;;;;;;5026424;28;20034;-77
2023/07/20 01:58:01;;;;;;;;;;;17.30;88.30;;;;;;5022598;28;20332;-77
2023/07/20 02:00:27;;;;;;;;;;;17.30;88.40;;;;;;5024856;28;19939;-79
2023/07/20 02:02:52;;;;;;;;;;;17.20;88.80;;;;;;5021491;28;20689;-79
2023/07/20 02:05:18;;;;;;;;;;;17.10;89.10;;;;;;5019968;28;19924;-78
2023/07/20 02:07:43;;;;;;;;;;;17.10;89.50;;;;;;5024259;28;19913;-79
2023/07/20 02:10:09;;;;;;;;;;;17.20;89.30;;;;;;5003561;28;19917;-77
2023/07/20 02:12:35;;;;;;;;;;;17.20;89.20;;;;;;5018761;28;19928;-78
2023/07/20 02:15:01;;;;;;;;;;;17.30;89.20;;;;;;5018460;28;19959;-77
2023/07/20 02:17:26;;;;;;;;;;;17.30;88.60;;;;;;5017522;28;19913;-77
2023/07/20 02:19:52;;;;;;;;;;;17.30;88.40;;;;;;5024197;28;19913;-78
2023/07/20 02:22:18;;;;;;;;;;;17.30;88.60;;;;;;5015890;28;19986;-79
2023/07/20 02:24:43;;;;;;;;;;;17.20;88.90;;;;;;4994475;28;20321;-78
2023/07/20 02:27:09;;;;;;;;;;;17.20;89.10;;;;;;5024180;28;19913;-77
2023/07/20 02:29:35;;;;;;;;;;;17.20;89.00;;;;;;5023052;28;20232;-80
2023/07/20 02:32:01;;;;;;;;;;;17.20;88.80;;;;;;5018037;28;20006;-77
2023/07/20 02:34:27;;;;;;;;;;;17.20;89.10;;;;;;5022798;28;20094;-77
2023/07/20 02:36:52;;;;;;;;;;;17.10;89.30;;;;;;5022705;28;19913;-77
2023/07/20 02:39:18;;;;;;;;;;;17.10;89.30;;;;;;5020535;28;19924;-79
2023/07/20 02:41:44;;;;;;;;;;;17.10;89.20;;;;;;5018316;28;19914;-79
2023/07/20 02:44:09;;;;;;;;;;;17.10;89.10;;;;;;5018071;28;20028;-79
2023/07/20 02:46:35;;;;;;;;;;;17.10;89.60;;;;;;5021923;28;20011;-78
2023/07/20 02:49:01;;;;;;;;;;;17.10;89.70;;;;;;5019910;28;20389;-77
2023/07/20 02:51:26;;;;;;;;;;;17.10;90.30;;;;;;5017499;28;19925;-78
2023/07/20 02:53:52;;;;;;;;;;;17.00;90.50;;;;;;5001798;28;19909;-77
2023/07/20 02:56:18;;;;;;;;;;;17.00;90.40;;;;;;5021646;28;20004;-78
2023/07/20 02:58:43;;;;;;;;;;;17.00;90.30;;;;;;5023101;28;19920;-79
2023/07/20 03:01:09;;;;;;;;;;;16.90;90.50;;;;;;5020671;28;19968;-78
2023/07/20 03:03:38;;;;;;;;;;;16.80;90.90;;;;;;5020864;28;19920;-79
2023/07/20 03:06:04;;;;;;;;;;;16.70;91.30;;;;;;5019041;28;19920;-79
2023/07/20 03:08:30;;;;;;;;;;;16.60;91.50;;;;;;4999002;28;20586;-80
2023/07/20 03:10:55;;;;;;;;;;;16.60;91.60;;;;;;5025079;28;19920;-77
2023/07/20 03:13:21;;;;;;;;;;;16.60;91.90;;;;;;5017286;28;19916;-77
2023/07/20 03:15:47;;;;;;;;;;;16.50;92.00;;;;;;5016102;28;19913;-78
2023/07/20 03:18:12;;;;;;;;;;;16.50;92.30;;;;;;5011392;28;20448;-76
2023/07/20 03:20:38;;;;;;;;;;;16.50;92.40;;;;;;5014770;28;19924;-79
2023/07/20 03:23:03;;;;;;;;;;;16.60;92.40;;;;;;5009231;28;19913;-80
2023/07/20 03:25:29;;;;;;;;;;;16.50;92.30;;;;;;5022313;28;20686;-77
2023/07/20 03:27:54;;;;;;;;;;;16.50;92.50;;;;;;5014811;28;20284;-78
2023/07/20 03:30:20;;;;;;;;;;;16.30;93.00;;;;;;5020403;28;19913;-78
2023/07/20 03:32:46;;;;;;;;;;;16.30;92.90;;;;;;5019699;28;19921;-77
2023/07/20 03:35:11;;;;;;;;;;;16.30;93.10;;;;;;5021728;28;19914;-76
2023/07/20 03:37:38;;;;;;;;;;;16.30;93.20;;;;;;5012723;28;19913;-79
2023/07/20 03:40:04;;;;;;;;;;;16.30;93.30;;;;;;5017106;28;19913;-79
2023/07/20 03:42:30;;;;;;;;;;;16.20;93.70;;;;;;5015092;28;19919;-77
2023/07/20 03:44:56;;;;;;;;;;;16.10;94.00;;;;;;5015440;28;19917;-78
2023/07/20 03:47:22;;;;;;;;;;;16.10;94.20;;;;;;5012408;28;19918;-77
2023/07/20 03:49:47;;;;;;;;;;;16.10;94.10;;;;;;4996635;28;19913;-78
2023/07/20 03:52:13;;;;;;;;;;;16.00;94.30;;;;;;5009407;28;19927;-76
2023/07/20 03:54:38;;;;;;;;;;;15.90;94.60;;;;;;5013019;28;19961;-78
2023/07/20 03:57:04;;;;;;;;;;;16.00;94.50;;;;;;5010541;28;19959;-78
2023/07/20 03:59:30;;;;;;;;;;;16.10;94.30;;;;;;5021509;28;20403;-80
2023/07/20 04:01:55;;;;;;;;;;;16.10;94.20;;;;;;5022202;28;19913;-77
2023/07/20 04:04:21;;;;;;;;;;;16.10;93.90;;;;;;5019992;28;19993;-77
2023/07/20 04:06:46;;;;;;;;;;;16.10;93.90;;;;;;5021407;28;19920;-77
2023/07/20 04:09:12;;;;;;;;;;;16.00;94.20;;;;;;5021978;28;19963;-77
2023/07/20 04:11:38;;;;;;;;;;;16.00;94.30;;;;;;5021709;28;20315;-77
2023/07/20 04:14:04;;;;;;;;;;;16.10;94.20;;;;;;5021068;28;19914;-79
2023/07/20 04:16:29;;;;;;;;;;;16.00;94.40;;;;;;5002455;28;19913;-78
2023/07/20 04:18:56;;;;;;;;;;;16.00;94.20;;;;;;5021975;28;20756;-81
2023/07/20 04:21:22;;;;;;;;;;;16.00;94.20;;;;;;5022534;28;20572;-77
2023/07/20 04:23:47;;;;;;;;;;;16.00;94.30;;;;;;5019002;28;19940;-79
2023/07/20 04:26:14;;;;;;;;;;;15.90;94.40;;;;;;5017468;28;20593;-77
2023/07/20 04:28:42;;;;;;;;;;;16.00;94.20;;;;;;5004140;28;19917;-80
2023/07/20 04:31:12;;;;;;;;;;;16.00;94.20;;;;;;5021195;28;20364;-79
2023/07/20 04:33:38;;;;;;;;;;;16.00;94.00;;;;;;5020990;28;19913;-78
2023/07/20 04:36:04;;;;;;;;;;;16.10;93.80;;;;;;5021807;28;20690;-77
2023/07/20 04:38:29;;;;;;;;;;;16.10;93.60;;;;;;5017500;28;19920;-80
2023/07/20 04:40:55;;;;;;;;;;;16.30;93.40;;;;;;5016464;28;19913;-77
2023/07/20 04:43:20;;;;;;;;;;;16.40;93.10;;;;;;5004075;28;19975;-77
2023/07/20 04:45:46;;;;;;;;;;;16.70;92.60;;;;;;5017924;28;19978;-76
2023/07/20 04:48:13;;;;;;;;;;;17.10;91.40;;;;;;5018022;28;19921;-77
2023/07/20 04:50:40;;;;;;;;;;;17.50;90.60;;;;;;5018392;28;20007;-78
2023/07/20 04:53:10;;;;;;;;;;;17.90;89.20;;;;;;5019674;28;20463;-78
2023/07/20 04:55:36;;;;;;;;;;;18.20;87.30;;;;;;5025495;28;19917;-78
2023/07/20 04:58:03;;;;;;;;;;;18.50;85.70;;;;;;5023892;28;20592;-76
2023/07/20 05:00:38;;;;;;;;;;;19.00;84.30;;;;;;5024485;28;19913;-78
2023/07/20 05:03:05;;;;;;;;;;;19.50;82.60;;;;;;5021272;28;19928;-79
2023/07/20 05:05:30;;;;;;;;;;;19.90;80.70;;;;;;5022116;28;19913;-78
2023/07/20 05:07:56;;;;;;;;;;;20.10;79.00;;;;;;5021139;28;19913;-78
2023/07/20 05:10:21;;;;;;;;;;;20.40;78.00;;;;;;5021667;28;19919;-77
2023/07/20 05:12:47;;;;;;;;;;;20.90;75.80;;;;;;5024237;28;19921;-78
2023/07/20 05:15:13;;;;;;;;;;;21.50;73.30;;;;;;5023430;28;20020;-77
2023/07/20 05:17:39;;;;;;;;;;;21.80;71.90;;;;;;5015891;28;19952;-78
2023/07/20 05:20:05;;;;;;;;;;;22.00;70.70;;;;;;5014551;28;19917;-79
2023/07/20 05:22:30;;;;;;;;;;;22.10;70.30;;;;;;5026200;28;20296;-79
2023/07/20 05:24:56;;;;;;;;;;;22.50;69.20;;;;;;5023880;28;19913;-76
2023/07/20 05:27:22;;;;;;;;;;;22.20;69.00;;;;;;5021024;28;20390;-77
2023/07/20 05:29:48;;;;;;;;;;;22.60;67.80;;;;;;5022370;28;19913;-80
2023/07/20 05:32:13;;;;;;;;;;;22.80;67.20;;;;;;5019409;28;20426;-78
2023/07/20 05:34:39;;;;;;;;;;;23.00;67.20;;;;;;5004910;28;19913;-79
2023/07/20 05:37:05;;;;;;;;;;;23.20;66.80;;;;;;5020688;28;19913;-80
2023/07/20 05:39:34;;;;;;;;;;;23.80;64.80;;;;;;5023845;28;19920;-81
2023/07/20 05:41:59;;;;;;;;;;;24.30;62.80;;;;;;5021046;28;19913;-82
2023/07/20 05:44:25;;;;;;;;;;;24.70;62.00;;;;;;5020144;28;19924;-80
2023/07/20 05:46:50;;;;;;;;;;;24.80;60.80;;;;;;5022594;28;20058;-82
2023/07/20 05:49:16;;;;;;;;;;;25.10;60.80;;;;;;5018155;28;19960;-79
2023/07/20 05:51:41;;;;;;;;;;;25.30;60.20;;;;;;5022006;28;19933;-79
2023/07/20 05:54:08;;;;;;;;;;;25.70;58.90;;;;;;5020462;28;19917;-81
2023/07/20 05:56:33;;;;;;;;;;;26.10;57.90;;;;;;5023783;28;19913;-78
2023/07/20 05:58:59;;;;;;;;;;;26.20;57.70;;;;;;5022831;28;19928;-79
2023/07/20 06:01:27;;;;;;;;;;;25.90;57.30;;;;;;5022740;28;19917;-79
2023/07/20 06:03:53;;;;;;;;;;;26.50;56.60;;;;;;5022499;28;20014;-79
2023/07/20 06:06:18;;;;;;;;;;;26.80;55.80;;;;;;5020880;28;19917;-80
2023/07/20 06:08:44;;;;;;;;;;;27.40;54.50;;;;;;5004727;28;19991;-81
2023/07/20 06:11:10;;;;;;;;;;;27.50;53.30;;;;;;5020657;28;19923;-83
2023/07/20 06:13:35;;;;;;;;;;;27.70;53.40;;;;;;5017391;28;19979;-79
2023/07/20 06:16:01;;;;;;;;;;;28.00;53.30;;;;;;4999171;28;19917;-78
2023/07/20 06:18:27;;;;;;;;;;;28.40;53.10;;;;;;5023659;28;19974;-82
2023/07/20 06:20:52;;;;;;;;;;;28.10;52.80;;;;;;5021340;28;20261;-80
2023/07/20 06:23:19;;;;;;;;;;;28.10;52.10;;;;;;5022319;28;20450;-78
2023/07/20 06:25:44;;;;;;;;;;;28.90;50.70;;;;;;5020903;28;20711;-80
2023/07/20 06:28:10;;;;;;;;;;;29.00;50.40;;;;;;5005951;28;19913;-81
2023/07/20 06:30:35;;;;;;;;;;;29.10;50.10;;;;;;5022443;28;20346;-78
2023/07/20 06:33:01;;;;;;;;;;;29.30;50.60;;;;;;5022474;28;19948;-79
2023/07/20 06:35:26;;;;;;;;;;;29.80;49.50;;;;;;5023272;28;19967;-78
2023/07/20 06:37:52;;;;;;;;;;;28.90;51.10;;;;;;5023530;28;20728;-79
2023/07/20 06:40:18;;;;;;;;;;;29.00;50.90;;;;;;5020970;28;19935;-81
2023/07/20 06:42:43;;;;;;;;;;;29.60;48.40;;;;;;5020712;28;20458;-80
2023/07/20 06:45:09;;;;;;;;;;;29.40;49.30;;;;;;5017422;28;19995;-79
2023/07/20 06:47:35;;;;;;;;;;;29.00;49.40;;;;;;5018753;28;19917;-81
2023/07/20 06:50:00;;;;;;;;;;;29.10;49.60;;;;;;5015540;28;19968;-79
2023/07/20 06:52:26;;;;;;;;;;;29.30;48.60;;;;;;5017084;28;19960;-80
2023/07/20 06:54:51;;;;;;;;;;;29.60;48.40;;;;;;5018226;28;19921;-79
2023/07/20 06:57:17;;;;;;;;;;;29.70;48.40;;;;;;5022328;28;20031;-79
2023/07/20 06:59:43;;;;;;;;;;;29.80;46.50;;;;;;5021450;28;20279;-79
2023/07/20 07:02:08;;;;;;;;;;;30.20;47.40;;;;;;5021729;28;19921;-78
2023/07/20 07:04:34;;;;;;;;;;;30.30;47.80;;;;;;5019276;28;20055;-80
2023/07/20 07:07:00;;;;;;;;;;;30.10;48.00;;;;;;5020023;28;19913;-82
2023/07/20 07:09:25;;;;;;;;;;;30.80;46.70;;;;;;5018205;28;20393;-79
2023/07/20 07:11:53;;;;;;;;;;;31.40;45.80;;;;;;5002184;28;19921;-79
2023/07/20 07:14:20;;;;;;;;;;;31.90;45.30;;;;;;5020440;28;19920;-78
2023/07/20 07:16:45;;;;;;;;;;;31.00;45.90;;;;;;5016019;28;20392;-80
2023/07/20 07:19:11;;;;;;;;;;;31.70;45.80;;;;;;5015109;28;19913;-79
2023/07/20 07:21:36;;;;;;;;;;;32.20;42.90;;;;;;5013742;28;19913;-78
2023/07/20 07:24:02;;;;;;;;;;;32.20;44.10;;;;;;5014018;28;19913;-80
2023/07/20 07:26:27;;;;;;;;;;;32.30;43.00;;;;;;5018596;28;19920;-78
2023/07/20 07:28:53;;;;;;;;;;;32.30;43.10;;;;;;5014313;28;19913;-78
2023/07/20 07:31:18;;;;;;;;;;;32.30;41.90;;;;;;5021700;28;19936;-79
2023/07/20 07:33:44;;;;;;;;;;;32.30;43.20;;;;;;5020941;28;19917;-80
2023/07/20 07:36:10;;;;;;;;;;;32.70;43.10;;;;;;5022435;28;20423;-83
2023/07/20 07:38:35;;;;;;;;;;;32.30;43.50;;;;;;5017065;28;20432;-82
2023/07/20 07:41:01;;;;;;;;;;;32.10;44.20;;;;;;5016377;28;19936;-78
2023/07/20 07:43:26;;;;;;;;;;;32.60;42.80;;;;;;5014681;28;19931;-78
2023/07/20 07:45:53;;;;;;;;;;;33.40;42.30;;;;;;5010495;28;19921;-79
2023/07/20 07:48:20;;;;;;;;;;;33.80;40.90;;;;;;5011994;28;19922;-79
2023/07/20 07:50:46;;;;;;;;;;;33.10;43.70;;;;;;5009544;28;19936;-81
2023/07/20 07:53:11;;;;;;;;;;;34.60;41.70;;;;;;5022420;28;19925;-79
2023/07/20 07:55:37;;;;;;;;;;;35.60;39.80;;;;;;5022301;28;19913;-79
2023/07/20 07:58:02;;;;;;;;;;;36.50;39.70;;;;;;5019663;28;19936;-80
2023/07/20 08:00:28;;;;;;;;;;;35.80;40.50;;;;;;5021275;28;19963;-81
2023/07/20 08:02:53;;;;;;;;;;;36.10;39.10;;;;;;5022788;28;19913;-78
2023/07/20 08:05:19;;;;;;;;;;;36.80;37.70;;;;;;5022353;28;19992;-80
2023/07/20 08:07:45;;;;;;;;;;;36.80;38.40;;;;;;5020567;28;19935;-79
2023/07/20 08:10:11;;;;;;;;;;;37.10;38.40;;;;;;5021141;28;19956;-79
2023/07/20 08:12:36;;;;;;;;;;;37.40;38.00;;;;;;5020235;28;20030;-79
2023/07/20 08:15:02;;;;;;;;;;;37.80;36.60;;;;;;5018888;28;19913;-79
2023/07/20 08:17:28;;;;;;;;;;;37.60;36.60;;;;;;5016278;28;19914;-79
2023/07/20 08:19:53;;;;;;;;;;;38.30;36.50;;;;;;5017675;28;20402;-79
2023/07/20 08:22:19;;;;;;;;;;;37.90;35.30;;;;;;5015804;28;19914;-81
2023/07/20 08:24:44;;;;;;;;;;;38.50;36.10;;;;;;5019694;28;19920;-81
2023/07/20 08:27:10;;;;;;;;;;;38.90;36.00;;;;;;5018002;28;19914;-82
2023/07/20 08:29:36;;;;;;;;;;;38.20;36.50;;;;;;5019175;28;19913;-79
2023/07/20 08:32:02;;;;;;;;;;;38.40;36.30;;;;;;5024051;28;19917;-79
2023/07/20 08:34:27;;;;;;;;;;;36.90;37.10;;;;;;5019579;28;19920;-80
2023/07/20 08:36:53;;;;;;;;;;;38.40;37.50;;;;;;5019495;28;20752;-79
2023/07/20 08:39:18;;;;;;;;;;;37.00;37.40;;;;;;5025950;28;19917;-80
2023/07/20 08:41:44;;;;;;;;;;;36.30;37.80;;;;;;5021823;28;19990;-80
2023/07/20 08:44:10;;;;;;;;;;;36.60;37.90;;;;;;5024175;28;20459;-80
2023/07/20 08:46:38;;;;;;;;;;;38.40;35.80;;;;;;5021838;28;20380;-78
2023/07/20 08:49:03;;;;;;;;;;;39.40;34.40;;;;;;5020943;28;19913;-78
2023/07/20 08:51:30;;;;;;;;;;;38.90;34.70;;;;;;5020560;28;19929;-81
2023/07/20 08:53:55;;;;;;;;;;;40.00;34.80;;;;;;5007701;28;19925;-81
2023/07/20 08:56:23;;;;;;;;;;;40.10;36.10;;;;;;5022363;28;19913;-81
2023/07/20 08:58:48;;;;;;;;;;;40.20;36.30;;;;;;5021857;28;19921;-79
2023/07/20 09:01:14;;;;;;;;;;;39.60;34.60;;;;;;5021169;28;19968;-79
2023/07/20 09:03:42;;;;;;;;;;;40.00;35.10;;;;;;5003950;28;19913;-82
2023/07/20 09:06:08;;;;;;;;;;;40.20;35.30;;;;;;5019861;28;19917;-80
2023/07/20 09:08:37;;;;;;;;;;;41.20;36.50;;;;;;5020046;28;19913;-82
2023/07/20 09:11:03;;;;;;;;;;;41.00;35.60;;;;;;5021809;28;19917;-78
2023/07/20 09:13:28;;;;;;;;;;;40.90;34.10;;;;;;5001801;28;20468;-79
2023/07/20 09:15:54;;;;;;;;;;;41.60;36.20;;;;;;5015486;28;20320;-80
2023/07/20 09:18:24;;;;;;;;;;;40.50;35.60;;;;;;5013911;28;19917;-81
2023/07/20 09:20:50;;;;;;;;;;;40.90;34.60;;;;;;5013163;28;19920;-82
2023/07/20 09:23:16;;;;;;;;;;;40.30;36.20;;;;;;5020681;28;19913;-81
2023/07/20 09:25:42;;;;;;;;;;;41.00;33.60;;;;;;5007903;28;19913;-80
2023/07/20 09:28:07;;;;;;;;;;;41.80;35.20;;;;;;5015579;28;19913;-81
2023/07/20 09:30:33;;;;;;;;;;;42.20;34.70;;;;;;5024547;28;19920;-80
2023/07/20 09:32:59;;;;;;;;;;;39.40;36.30;;;;;;5024622;28;19921;-79
2023/07/20 09:35:25;;;;;;;;;;;36.90;37.50;;;;;;5022791;28;20160;-81
2023/07/20 09:37:54;;;;;;;;;;;37.90;37.20;;;;;;5022839;28;20396;-82
2023/07/20 09:40:20;;;;;;;;;;;34.60;41.00;;;;;;5019477;28;19919;-79
2023/07/20 09:42:46;;;;;;;;;;;34.20;41.90;;;;;;5021644;28;20658;-79
2023/07/20 09:45:11;;;;;;;;;;;32.20;42.00;;;;;;5021163;28;19917;-78
2023/07/20 09:47:40;;;;;;;;;;;30.00;43.60;;;;;;5002780;28;19917;-80
2023/07/20 09:50:12;;;;;;;;;;;31.00;44.80;;;;;;5015612;28;20036;-81
2023/07/20 09:52:44;;;;;;;;;;;36.20;40.50;;;;;;5022333;28;19929;-80
2023/07/20 09:55:11;;;;;;;;;;;39.40;33.80;;;;;;5023691;28;19994;-81
2023/07/20 09:57:36;;;;;;;;;;;39.90;34.50;;;;;;5006484;28;20016;-78
2023/07/20 10:00:08;;;;;;;;;;;40.90;33.30;;;;;;5023973;28;19989;-79
2023/07/20 10:02:36;;;;;;;;;;;41.30;33.80;;;;;;5024022;28;20015;-79
2023/07/20 10:05:03;;;;;;;;;;;41.30;33.40;;;;;;5022482;28;19948;-79
2023/07/20 10:07:30;;;;;;;;;;;41.30;34.80;;;;;;5021965;28;19925;-80
2023/07/20 10:09:56;;;;;;;;;;;41.90;34.50;;;;;;5001586;28;20407;-79
2023/07/20 10:12:22;;;;;;;;;;;41.40;32.70;;;;;;5023609;28;19994;-80
2023/07/20 10:15:23;;;;;;;;;;;41.40;33.20;;;;;;5020995;28;20003;-79
2023/07/20 10:18:01;;;;;;;;;;;41.70;34.80;;;;;;4938951;28;20101;-80
2023/07/20 10:20:27;;;;;;;;;;;40.00;35.00;;;;;;5007672;28;19913;-78
2023/07/20 10:22:54;;;;;;;;;;;40.10;35.80;;;;;;5018355;28;19916;-78
2023/07/20 10:25:21;;;;;;;;;;;41.20;34.20;;;;;;5024177;28;19917;-79
2023/07/20 10:27:47;;;;;;;;;;;41.60;33.50;;;;;;5009810;28;19914;-80
2023/07/20 10:30:13;;;;;;;;;;;39.90;31.50;;;;;;5022317;28;19913;-79
2023/07/20 10:32:39;;;;;;;;;;;38.40;35.30;;;;;;5023402;28;20390;-78
2023/07/20 10:35:12;;;;;;;;;;;34.60;38.80;;;;;;5023477;28;19913;-78
2023/07/20 10:37:47;;;;;;;;;;;38.20;37.80;;;;;;5023982;28;19980;-79
2023/07/20 10:40:24;;;;;;;;;;;40.10;36.00;;;;;;5017751;28;19914;-80
2023/07/20 10:42:50;;;;;;;;;;;39.00;36.20;;;;;;5017846;28;20402;-81
2023/07/20 10:45:17;;;;;;;;;;;37.30;36.30;;;;;;5015300;28;19917;-79
2023/07/20 10:47:46;;;;;;;;;;;34.20;38.80;;;;;;5017288;28;19921;-79
2023/07/20 10:50:12;;;;;;;;;;;33.00;41.80;;;;;;5017856;28;20396;-79
2023/07/20 10:52:38;;;;;;;;;;;31.60;44.40;;;;;;5005406;28;20063;-79
2023/07/20 10:55:16;;;;;;;;;;;31.20;46.70;;;;;;5022923;28;19917;-78
2023/07/20 10:57:42;;;;;;;;;;;31.50;48.40;;;;;;5020908;28;19968;-78
2023/07/20 11:00:12;;;;;;;;;;;31.70;46.20;;;;;;5022016;28;20458;-78
2023/07/20 11:02:47;;;;;;;;;;;32.60;47.70;;;;;;5020212;28;19959;-80
2023/07/20 11:05:45;;;;;;;;;;;31.80;44.50;;;;;;5018545;28;20042;-79
2023/07/20 11:08:11;;;;;;;;;;;32.00;47.60;;;;;;4984017;28;19920;-82
2023/07/20 11:10:37;;;;;;;;;;;31.80;49.10;;;;;;5018348;28;20439;-78
2023/07/20 11:13:22;;;;;;;;;;;31.60;47.30;;;;;;5018431;28;19929;-77
2023/07/20 11:16:08;;;;;;;;;;;31.20;49.00;;;;;;5013921;28;20004;-80
2023/07/20 11:18:39;;;;;;;;;;;31.20;49.40;;;;;;5014939;28;19920;-79
2023/07/20 11:21:07;;;;;;;;;;;31.60;48.50;;;;;;5016168;28;19914;-81
2023/07/20 11:23:33;;;;;;;;;;;31.30;49.40;;;;;;5021913;28;19919;-78
2023/07/20 11:26:00;;;;;;;;;;;31.00;48.70;;;;;;5022404;28;19913;-79
2023/07/20 11:28:25;;;;;;;;;;;31.00;47.10;;;;;;5022328;28;19968;-79
2023/07/20 11:30:54;;;;;;;;;;;30.60;48.50;;;;;;5022184;28;19917;-79
2023/07/20 11:33:19;;;;;;;;;;;30.60;49.00;;;;;;5021905;28;20063;-79
2023/07/20 11:35:49;;;;;;;;;;;30.50;52.60;;;;;;5015479;28;19956;-81
2023/07/20 11:38:15;;;;;;;;;;;30.30;48.90;;;;;;5021153;28;20051;-79
2023/07/20 11:40:44;;;;;;;;;;;29.90;50.80;;;;;;5000833;28;19914;-79
2023/07/20 11:43:11;;;;;;;;;;;29.80;48.30;;;;;;5019059;28;19917;-80
2023/07/20 11:45:37;;;;;;;;;;;29.60;50.70;;;;;;5014041;28;19921;-79
2023/07/20 11:48:03;;;;;;;;;;;30.10;51.90;;;;;;5016676;28;19964;-78
2023/07/20 11:50:28;;;;;;;;;;;29.80;50.40;;;;;;5012447;28;20427;-78
2023/07/20 11:52:54;;;;;;;;;;;29.80;52.20;;;;;;5017504;28;19967;-80
2023/07/20 11:55:20;;;;;;;;;;;29.70;51.00;;;;;;5011574;28;19913;-80
2023/07/20 11:58:04;;;;;;;;;;;29.80;50.10;;;;;;5020297;28;20790;-78
2023/07/20 12:00:30;;;;;;;;;;;29.20;49.10;;;;;;5028414;28;20582;-82
2023/07/20 12:02:56;;;;;;;;;;;29.20;48.40;;;;;;5028008;28;19913;-80
2023/07/20 12:05:24;;;;;;;;;;;28.90;49.90;;;;;;5027770;28;19913;-81
2023/07/20 12:07:51;;;;;;;;;;;29.50;55.20;;;;;;5023743;28;19960;-81
2023/07/20 12:10:23;;;;;;;;;;;29.70;54.50;;;;;;5026886;28;19920;-78
2023/07/20 12:12:49;;;;;;;;;;;29.70;52.70;;;;;;5022970;28;19928;-79
2023/07/20 12:15:29;;;;;;;;;;;29.80;52.20;;;;;;5024064;28;19913;-79
2023/07/20 12:17:56;;;;;;;;;;;30.00;51.70;;;;;;5022250;28;19913;-79
2023/07/20 12:20:29;;;;;;;;;;;30.10;52.30;;;;;;5023065;28;19939;-80
2023/07/20 12:23:04;;;;;;;;;;;29.60;53.10;;;;;;5023826;28;20380;-79
2023/07/20 12:25:34;;;;;;;;;;;29.00;53.70;;;;;;5027946;28;19913;-80
2023/07/20 12:28:07;;;;;;;;;;;29.00;57.20;;;;;;5020670;28;19920;-79
2023/07/20 12:30:33;;;;;;;;;;;28.90;52.60;;;;;;5027836;28;20681;-78
2023/07/20 12:32:58;;;;;;;;;;;29.20;54.50;;;;;;5028011;28;19921;-79
2023/07/20 12:35:24;;;;;;;;;;;29.30;51.80;;;;;;5028500;28;20306;-80
2023/07/20 12:37:51;;;;;;;;;;;29.20;52.40;;;;;;5026868;28;19913;-79
2023/07/20 12:40:17;;;;;;;;;;;29.00;52.30;;;;;;5023675;28;20023;-79
2023/07/20 12:42:42;;;;;;;;;;;29.00;51.90;;;;;;5021114;28;20451;-77
2023/07/20 12:45:08;;;;;;;;;;;29.20;54.20;;;;;;5022342;28;20385;-79
2023/07/20 12:47:34;;;;;;;;;;;29.60;54.30;;;;;;5023874;28;20081;-79
2023/07/20 12:49:59;;;;;;;;;;;29.30;50.80;;;;;;5021084;28;19925;-79
2023/07/20 12:52:25;;;;;;;;;;;29.10;50.20;;;;;;5021917;28;19928;-80
2023/07/20 12:54:51;;;;;;;;;;;29.20;52.00;;;;;;5020339;28;19913;-80
2023/07/20 12:57:17;;;;;;;;;;;29.00;51.30;;;;;;5020595;28;20341;-80
2023/07/20 12:59:42;;;;;;;;;;;29.10;53.50;;;;;;5027926;28;19913;-78
2023/07/20 13:02:08;;;;;;;;;;;29.00;53.00;;;;;;5028314;28;19914;-79
2023/07/20 13:04:33;;;;;;;;;;;29.10;53.70;;;;;;5027306;28;19924;-78
2023/07/20 13:06:59;;;;;;;;;;;29.00;53.20;;;;;;5027463;28;19956;-79
2023/07/20 13:09:25;;;;;;;;;;;28.50;51.00;;;;;;5023464;28;20448;-79
2023/07/20 13:11:51;;;;;;;;;;;28.40;51.10;;;;;;5026092;28;19921;-78
2023/07/20 13:14:17;;;;;;;;;;;28.60;52.90;;;;;;5019557;28;20004;-80
2023/07/20 13:16:42;;;;;;;;;;;28.30;52.40;;;;;;5021583;28;20457;-77
2023/07/20 13:19:08;;;;;;;;;;;28.50;54.40;;;;;;5023512;28;20418;-78
2023/07/20 13:21:33;;;;;;;;;;;28.60;55.80;;;;;;5025400;28;19990;-78
2023/07/20 13:23:59;;;;;;;;;;;28.40;55.00;;;;;;5021354;28;20483;-80
2023/07/20 13:26:24;;;;;;;;;;;28.30;55.30;;;;;;5022554;28;20474;-79
2023/07/20 13:28:50;;;;;;;;;;;28.60;53.10;;;;;;5019143;28;19917;-81
2023/07/20 13:31:17;;;;;;;;;;;28.30;51.20;;;;;;5024417;28;19913;-79
2023/07/20 13:33:42;;;;;;;;;;;28.10;51.60;;;;;;5023446;28;19953;-78
2023/07/20 13:36:08;;;;;;;;;;;28.30;53.20;;;;;;5024814;28;19940;-79
2023/07/20 13:38:33;;;;;;;;;;;28.40;55.30;;;;;;5020063;28;19918;-78
2023/07/20 13:40:59;;;;;;;;;;;28.30;54.80;;;;;;5022009;28;19919;-79
2023/07/20 13:43:25;;;;;;;;;;;28.40;56.20;;;;;;5021435;28;19920;-78
2023/07/20 13:45:50;;;;;;;;;;;28.50;56.30;;;;;;5020542;28;19967;-80
2023/07/20 13:48:19;;;;;;;;;;;28.50;56.10;;;;;;5017717;28;19936;-78
2023/07/20 13:50:45;;;;;;;;;;;28.40;56.40;;;;;;5016689;28;19925;-79
2023/07/20 13:53:11;;;;;;;;;;;28.30;56.50;;;;;;5018952;28;19948;-78
2023/07/20 13:55:38;;;;;;;;;;;28.30;56.20;;;;;;5023938;28;19959;-80
2023/07/20 13:58:04;;;;;;;;;;;28.10;53.80;;;;;;5023290;28;20462;-78
2023/07/20 14:00:32;;;;;;;;;;;28.00;52.20;;;;;;5023092;28;19944;-80
2023/07/20 14:03:01;;;;;;;;;;;27.80;51.50;;;;;;5020076;28;20587;-79
2023/07/20 14:05:26;;;;;;;;;;;27.80;53.10;;;;;;5021248;28;19913;-79
2023/07/20 14:07:52;;;;;;;;;;;28.00;54.10;;;;;;5017457;28;19920;-79
2023/07/20 14:10:17;;;;;;;;;;;27.70;51.10;;;;;;5020021;28;21244;-79
2023/07/20 14:12:44;;;;;;;;;;;27.70;52.90;;;;;;5023064;28;19943;-78
2023/07/20 14:15:10;;;;;;;;;;;28.00;55.60;;;;;;5019336;28;19913;-81